Time;durP1;ratioP1;P1;durP2;ratioP2;P2;SDS_P1;SDS_P2;PMS_P1;PMS_P2;Temp;Humidity;BMP_temperature;BMP_pressure;BME280_temperature;BME280_humidity;BME280_pressure;Samples;Min_cycle;Max_cycle;Signal;HPM_P1;HPM_P2
2022/02/15 00:01:36;;;;;;;6.17;5.67;;;6.20;99.90;;;7.06;100.00;97242.81;5144095;28;20668;-62
2022/02/15 00:04:09;;;;;;;6.43;5.83;;;6.30;99.90;;;7.08;100.00;97237.84;5139160;28;20214;-62
2022/02/15 00:06:42;;;;;;;5.20;4.83;;;6.30;99.90;;;7.06;100.00;97245.38;5145333;28;20223;-62
2022/02/15 00:09:17;;;;;;;6.00;5.50;;;6.30;99.90;;;7.06;100.00;97244.50;5140791;28;20207;-61
2022/02/15 00:11:50;;;;;;;6.47;5.93;;;6.30;99.90;;;7.06;100.00;97237.75;5142212;28;20230;-61
2022/02/15 00:14:23;;;;;;;5.03;4.70;;;6.30;99.90;;;7.08;100.00;97243.81;5145471;28;20535;-61
2022/02/15 00:16:56;;;;;;;5.87;5.37;;;6.30;99.90;;;7.09;100.00;97235.38;5147313;28;20223;-61
2022/02/15 00:19:29;;;;;;;6.77;6.10;;;6.30;99.90;;;7.11;100.00;97245.66;5151252;28;20199;-61
2022/02/15 00:22:02;;;;;;;6.00;5.50;;;6.30;99.90;;;7.10;100.00;97249.88;5147931;28;20568;-61
2022/02/15 00:24:36;;;;;;;6.47;5.97;;;6.20;99.90;;;7.08;100.00;97245.47;5149873;28;20439;-61
2022/02/15 00:27:10;;;;;;;5.97;5.47;;;6.30;99.90;;;7.06;100.00;97253.00;5135247;28;20195;-62
2022/02/15 00:29:43;;;;;;;6.23;5.63;;;6.20;99.90;;;7.07;100.00;97248.78;5146069;28;20203;-61
2022/02/15 00:32:16;;;;;;;6.57;5.97;;;6.20;99.90;;;7.06;100.00;97254.66;5142747;28;20228;-62
2022/02/15 00:34:49;;;;;;;5.60;5.20;;;6.20;99.90;;;6.97;100.00;97252.44;5141090;28;20204;-61
2022/02/15 00:37:22;;;;;;;6.50;5.60;;;6.10;99.90;;;6.95;100.00;97251.47;5142828;28;20234;-62
2022/02/15 00:39:56;;;;;;;5.03;4.63;;;6.10;99.90;;;6.96;100.00;97256.66;5141926;28;20204;-62
2022/02/15 00:42:29;;;;;;;5.53;5.13;;;6.20;99.90;;;6.99;100.00;97251.75;5137361;28;20226;-62
2022/02/15 00:45:03;;;;;;;5.63;5.17;;;6.20;99.90;;;6.93;100.00;97240.34;5146146;28;20230;-60
2022/02/15 00:47:36;;;;;;;5.13;4.73;;;6.10;99.90;;;6.92;100.00;97248.72;5144496;28;20204;-61
2022/02/15 00:50:10;;;;;;;4.93;4.53;;;6.10;99.90;;;6.93;100.00;97240.34;5146649;28;20199;-61
2022/02/15 00:52:43;;;;;;;4.93;4.50;;;6.10;99.90;;;6.92;100.00;97244.53;5138127;28;20434;-61
2022/02/15 00:55:17;;;;;;;4.83;4.50;;;6.10;99.90;;;6.93;100.00;97242.88;5147236;28;20215;-62
2022/02/15 00:57:50;;;;;;;4.50;4.20;;;6.10;99.90;;;6.93;100.00;97240.34;5145294;28;20219;-60
2022/02/15 01:00:26;;;;;;;4.77;4.47;;;6.10;99.90;;;6.90;100.00;97243.56;5145659;28;20199;-61
2022/02/15 01:02:59;;;;;;;3.93;3.73;;;6.10;99.90;;;6.86;100.00;97250.91;5138939;28;20231;-62
2022/02/15 01:05:32;;;;;;;4.40;4.10;;;6.10;99.90;;;6.86;100.00;97249.25;5142537;28;20196;-61
2022/02/15 01:08:08;;;;;;;4.20;3.90;;;6.10;99.90;;;6.89;100.00;97259.59;5135615;28;20200;-61
2022/02/15 01:10:42;;;;;;;3.90;3.60;;;6.10;99.90;;;6.87;100.00;97265.38;5143234;28;20196;-61
2022/02/15 01:13:17;;;;;;;3.97;3.77;;;6.00;99.90;;;6.90;100.00;97265.56;5143668;28;20227;-62
2022/02/15 01:15:50;;;;;;;4.93;4.40;;;6.10;99.90;;;6.89;100.00;97267.19;5144091;28;20230;-61
2022/02/15 01:18:26;;;;;;;5.00;4.57;;;6.10;99.90;;;6.84;100.00;97273.69;5144053;28;20239;-62
2022/02/15 01:20:59;;;;;;;5.40;5.00;;;6.00;99.90;;;6.82;100.00;97266.75;5143498;28;20199;-62
2022/02/15 01:23:32;;;;;;;4.70;4.40;;;6.00;99.90;;;6.85;100.00;97264.41;5146309;28;20220;-62
2022/02/15 01:26:07;;;;;;;5.10;4.70;;;6.00;99.90;;;6.88;100.00;97268.00;5143715;28;20196;-62
2022/02/15 01:28:40;;;;;;;4.00;3.73;;;6.10;99.90;;;6.92;100.00;97269.06;5141035;28;20637;-62
2022/02/15 01:31:13;;;;;;;5.13;4.63;;;6.10;99.90;;;6.90;100.00;97255.41;5148651;28;20206;-62
2022/02/15 01:33:46;;;;;;;4.13;3.83;;;6.10;99.90;;;6.89;100.00;97259.59;5150081;28;20228;-62
2022/02/15 01:36:19;;;;;;;4.30;4.00;;;6.00;99.90;;;6.87;100.00;97267.91;5148673;28;20571;-62
2022/02/15 01:38:52;;;;;;;5.10;4.80;;;6.00;99.90;;;6.83;100.00;97260.88;5148153;28;20675;-62
2022/02/15 01:41:26;;;;;;;4.93;4.53;;;6.00;99.90;;;6.81;100.00;97257.34;5148292;28;20222;-62
2022/02/15 01:43:59;;;;;;;8.13;7.40;;;6.00;99.90;;;6.73;100.00;97257.78;5146220;28;20230;-63
2022/02/15 01:46:33;;;;;;;7.00;6.40;;;5.90;99.90;;;6.77;100.00;97253.75;5143518;28;20219;-62
2022/02/15 01:49:06;;;;;;;6.23;5.63;;;5.90;99.90;;;6.68;100.00;97254.06;5146251;28;20204;-63
2022/02/15 01:51:39;;;;;;;5.67;4.70;;;5.90;99.90;;;6.74;100.00;97251.03;5155137;28;20196;-63
2022/02/15 01:54:13;;;;;;;4.77;4.47;;;5.80;99.90;;;6.71;100.00;97249.19;5151681;28;20199;-63
2022/02/15 01:56:47;;;;;;;5.37;4.97;;;5.90;99.90;;;6.71;100.00;97259.34;5151297;28;20227;-62
2022/02/15 01:59:20;;;;;;;5.37;4.97;;;5.90;99.90;;;6.65;100.00;97261.50;5144884;28;20578;-63
2022/02/15 02:01:53;;;;;;;5.10;4.80;;;5.80;99.90;;;6.63;100.00;97255.44;5150949;28;20621;-62
2022/02/15 02:07:27;;;;;;;5.33;4.77;;;5.80;99.90;;;6.61;100.00;97258.66;5122626;28;20200;-63
2022/02/15 02:10:00;;;;;;;5.07;4.77;;;5.80;99.90;;;6.59;100.00;97250.97;5150804;28;20195;-60
2022/02/15 02:12:35;;;;;;;5.00;4.60;;;5.80;99.90;;;6.55;100.00;97256.63;5145476;28;20231;-61
2022/02/15 02:15:14;;;;;;;4.60;4.20;;;5.70;99.90;;;6.54;100.00;97255.75;5146897;28;20214;-61
2022/02/15 02:17:47;;;;;;;4.83;4.53;;;5.80;99.90;;;6.50;100.00;97263.09;5144056;28;20231;-61
2022/02/15 02:20:22;;;;;;;3.90;3.70;;;5.70;99.90;;;6.45;100.00;97260.25;5144294;28;20287;-61
2022/02/15 02:22:56;;;;;;;4.57;4.27;;;5.70;99.90;;;6.36;100.00;97259.69;5145062;28;20234;-61
2022/02/15 02:25:30;;;;;;;4.23;3.90;;;5.60;99.90;;;6.35;100.00;97262.97;5149646;28;20203;-61
2022/02/15 02:28:04;;;;;;;4.10;3.80;;;5.60;99.90;;;6.33;100.00;97259.47;5153926;28;20207;-61
2022/02/15 02:30:37;;;;;;;3.70;3.50;;;5.50;99.90;;;6.27;100.00;97265.06;5146484;28;20204;-61
2022/02/15 02:33:10;;;;;;;3.57;3.37;;;5.40;99.90;;;6.11;100.00;97269.91;5146028;28;20220;-61
2022/02/15 02:35:43;;;;;;;3.93;3.73;;;5.30;99.90;;;6.10;100.00;97273.25;5145137;28;20200;-61
2022/02/15 02:38:17;;;;;;;3.80;3.60;;;5.30;99.90;;;6.09;100.00;97268.94;5145446;28;20226;-61
2022/02/15 02:40:50;;;;;;;4.07;3.80;;;5.30;99.90;;;6.06;100.00;97273.81;5143099;28;20693;-61
2022/02/15 02:43:25;;;;;;;3.90;3.70;;;5.30;99.90;;;6.03;100.00;97268.53;5144718;28;20235;-61
2022/02/15 02:45:58;;;;;;;4.17;3.87;;;5.30;99.90;;;5.99;100.00;97272.53;5145326;28;20552;-60
2022/02/15 02:48:31;;;;;;;4.27;4.00;;;5.20;99.90;;;5.96;100.00;97274.00;5139965;28;20614;-61
2022/02/15 02:51:04;;;;;;;4.20;3.90;;;5.10;99.90;;;5.94;100.00;97273.03;5142905;28;20202;-61
2022/02/15 02:53:39;;;;;;;3.33;3.13;;;5.10;99.90;;;5.93;100.00;97274.69;5146590;28;20239;-61
2022/02/15 02:56:12;;;;;;;4.27;3.97;;;5.10;99.90;;;5.83;100.00;97275.69;5145210;28;20199;-61
2022/02/15 02:58:45;;;;;;;3.80;3.57;;;5.00;99.90;;;5.76;100.00;97276.06;5145742;28;20216;-61
2022/02/15 03:01:18;;;;;;;4.53;4.23;;;4.80;99.90;;;5.66;100.00;97278.78;5140759;28;20569;-61
2022/02/15 03:03:51;;;;;;;4.40;4.17;;;4.70;99.90;;;5.66;100.00;97283.84;5144519;28;20224;-61
2022/02/15 03:06:26;;;;;;;6.70;6.20;;;4.80;99.90;;;5.58;100.00;97287.50;5144016;28;20211;-61
2022/02/15 03:09:00;;;;;;;6.90;6.27;;;4.80;99.90;;;5.62;100.00;97289.50;5147439;28;20565;-61
2022/02/15 03:11:34;;;;;;;7.67;7.07;;;4.80;99.90;;;5.61;100.00;97287.75;5140186;28;20697;-61
2022/02/15 03:14:07;;;;;;;6.83;6.33;;;4.80;99.90;;;5.57;100.00;97294.25;5147829;28;20226;-62
2022/02/15 03:16:40;;;;;;;6.67;6.13;;;4.80;99.90;;;5.55;100.00;97297.44;5136704;28;20623;-61
2022/02/15 03:19:14;;;;;;;6.13;5.63;;;4.80;99.90;;;5.55;100.00;97302.53;5144765;28;20652;-62
2022/02/15 03:21:47;;;;;;;5.53;5.13;;;4.80;99.90;;;5.54;100.00;97295.69;5144182;28;20199;-61
2022/02/15 03:24:21;;;;;;;4.97;4.57;;;4.80;99.90;;;5.55;100.00;97298.34;5143693;28;20214;-62
2022/02/15 03:26:54;;;;;;;5.20;4.80;;;4.80;99.90;;;5.58;100.00;97306.16;5144712;28;20199;-61
2022/02/15 03:29:28;;;;;;;5.10;4.70;;;4.80;99.90;;;5.48;100.00;97298.72;5144148;28;20212;-61
2022/02/15 03:32:01;;;;;;;4.73;4.43;;;4.80;99.90;;;5.51;100.00;97290.44;5143382;28;20227;-62
2022/02/15 03:34:34;;;;;;;5.00;4.70;;;4.70;99.90;;;5.56;100.00;97299.22;5143619;28;20206;-62
2022/02/15 03:37:07;;;;;;;4.60;4.30;;;4.80;99.90;;;5.56;100.00;97306.84;5143717;28;20254;-61
2022/02/15 03:39:41;;;;;;;4.53;4.10;;;4.80;99.90;;;5.59;100.00;97305.38;5141281;28;20223;-61
2022/02/15 03:45:06;;;;;;;4.47;4.17;;;4.90;99.90;;;5.64;100.00;97320.91;5140379;28;20196;-61
2022/02/15 03:47:40;;;;;;;5.17;4.77;;;4.80;99.90;;;5.66;100.00;97324.41;5142664;28;20215;-60
2022/02/15 03:50:13;;;;;;;7.17;5.97;;;4.80;99.90;;;5.62;100.00;97319.91;5143491;28;20200;-61
2022/02/15 03:52:46;;;;;;;5.23;4.83;;;4.90;99.90;;;5.65;100.00;97322.66;5140809;28;20249;-61
2022/02/15 03:55:21;;;;;;;5.60;5.10;;;4.90;99.90;;;5.71;100.00;97324.72;5143276;28;20290;-61
2022/02/15 03:57:54;;;;;;;4.50;4.20;;;4.90;99.90;;;5.69;100.00;97332.22;5141549;28;20250;-61
2022/02/15 04:00:27;;;;;;;4.33;3.97;;;4.90;99.90;;;5.70;100.00;97318.78;5140521;28;20452;-61
2022/02/15 04:03:00;;;;;;;5.60;5.10;;;4.80;99.90;;;5.66;100.00;97337.06;5140924;28;20322;-61
2022/02/15 04:05:33;;;;;;;5.23;4.83;;;4.80;99.90;;;5.64;100.00;97334.44;5143613;28;20261;-60
2022/02/15 04:08:07;;;;;;;4.93;4.63;;;4.80;99.90;;;5.60;100.00;97336.66;5145251;28;20294;-60
2022/02/15 04:10:41;;;;;;;4.73;4.33;;;4.80;99.90;;;5.64;100.00;97328.50;5138961;28;20196;-61
2022/02/15 04:13:14;;;;;;;5.20;4.80;;;4.80;99.90;;;5.68;100.00;97335.53;5143698;28;20225;-61
2022/02/15 04:15:47;;;;;;;5.07;4.73;;;4.80;99.90;;;5.72;100.00;97336.59;5143304;28;20201;-60
2022/02/15 04:18:20;;;;;;;5.07;4.67;;;4.90;99.90;;;5.70;100.00;97333.13;5145084;28;20236;-61
2022/02/15 04:20:53;;;;;;;5.47;5.07;;;4.90;99.90;;;5.73;100.00;97338.38;5142179;28;20204;-61
2022/02/15 04:23:26;;;;;;;5.73;5.33;;;4.90;99.90;;;5.77;100.00;97333.59;5140156;28;20228;-62
2022/02/15 04:26:00;;;;;;;5.03;4.63;;;5.00;99.90;;;5.77;100.00;97338.69;5142524;28;20240;-62
2022/02/15 04:28:33;;;;;;;4.90;4.60;;;5.00;99.90;;;5.76;100.00;97334.41;5139638;28;20202;-62
2022/02/15 04:31:06;;;;;;;4.67;4.27;;;4.90;99.90;;;5.71;100.00;97339.94;5137170;28;20566;-62
2022/02/15 04:33:40;;;;;;;5.50;5.10;;;4.90;99.90;;;5.72;100.00;97340.00;5141393;28;20267;-62
2022/02/15 04:36:13;;;;;;;4.73;4.43;;;4.80;99.90;;;5.70;100.00;97339.06;5139876;28;20214;-62
2022/02/15 04:38:46;;;;;;;4.50;4.30;;;4.80;99.90;;;5.65;100.00;97353.94;5140457;28;20235;-61
2022/02/15 04:41:21;;;;;;;4.07;3.80;;;4.80;99.90;;;5.64;100.00;97353.88;5143687;28;20200;-61
2022/02/15 04:43:54;;;;;;;3.97;3.77;;;4.80;99.90;;;5.67;100.00;97359.13;5142475;28;20246;-61
2022/02/15 04:46:32;;;;;;;4.00;3.70;;;4.90;99.90;;;5.72;100.00;97357.75;5142026;28;20610;-61
2022/02/15 04:49:05;;;;;;;4.37;4.07;;;4.90;99.90;;;5.74;100.00;97361.28;5136469;28;20558;-62
2022/02/15 04:51:38;;;;;;;3.60;3.40;;;4.90;99.90;;;5.73;100.00;97358.66;5142253;28;20208;-62
2022/02/15 04:54:11;;;;;;;3.87;3.67;;;4.90;99.90;;;5.73;100.00;97361.22;5141622;28;20208;-62
2022/02/15 04:56:45;;;;;;;3.77;3.57;;;4.90;99.90;;;5.75;100.00;97372.31;5142453;28;20672;-62
2022/02/15 04:59:18;;;;;;;3.87;3.67;;;4.90;99.90;;;5.76;100.00;97380.03;5139874;28;20219;-62
2022/02/15 05:01:51;;;;;;;3.87;3.57;;;4.90;99.90;;;5.71;100.00;97373.75;5141518;28;20298;-62
2022/02/15 05:07:18;;;;;;;3.93;3.63;;;4.90;99.90;;;5.77;100.00;97370.75;5141618;28;20200;-62
2022/02/15 05:09:51;;;;;;;4.10;3.70;;;4.90;99.90;;;5.72;100.00;97377.16;5138966;28;20192;-62
2022/02/15 05:12:26;;;;;;;4.20;3.90;;;4.90;99.90;;;5.76;100.00;97372.44;5141095;28;20668;-61
2022/02/15 05:14:59;;;;;;;4.27;3.97;;;4.90;99.90;;;5.73;100.00;97379.81;5141705;28;20209;-62
2022/02/15 05:17:32;;;;;;;4.67;4.37;;;4.90;99.90;;;5.75;100.00;97383.34;5138809;28;20342;-62
2022/02/15 05:20:06;;;;;;;4.37;3.97;;;4.90;99.90;;;5.79;100.00;97385.31;5136895;28;20318;-62
2022/02/15 05:22:39;;;;;;;4.67;4.30;;;4.90;99.90;;;5.79;100.00;97385.31;5138885;28;20214;-63
2022/02/15 05:25:14;;;;;;;4.97;4.60;;;5.00;99.90;;;5.80;100.00;97392.13;5142856;28;20342;-62
2022/02/15 05:27:48;;;;;;;4.47;4.17;;;5.00;99.90;;;5.81;100.00;97388.84;5140428;28;20195;-63
2022/02/15 05:30:21;;;;;;;4.27;3.87;;;5.00;99.90;;;5.82;100.00;97397.31;5139362;28;20199;-62
2022/02/15 05:32:55;;;;;;;4.00;3.70;;;5.00;99.90;;;5.85;100.00;97395.84;5138540;28;20227;-63
2022/02/15 05:35:28;;;;;;;4.80;4.47;;;5.00;99.90;;;5.84;100.00;97401.72;5137579;28;20212;-63
2022/02/15 05:38:01;;;;;;;5.17;4.77;;;5.00;99.90;;;5.84;100.00;97408.44;5142877;28;20200;-63
2022/02/15 05:40:34;;;;;;;4.50;4.20;;;5.00;99.90;;;5.86;100.00;97407.75;5140491;28;20243;-63
2022/02/15 05:43:13;;;;;;;4.97;4.67;;;5.00;99.90;;;5.86;100.00;97415.34;5141062;28;20231;-63
2022/02/15 05:45:52;;;;;;;5.03;4.63;;;4.90;99.90;;;5.79;100.00;97409.78;5140889;28;20266;-62
2022/02/15 05:48:25;;;;;;;4.57;4.17;;;4.90;99.90;;;5.77;100.00;97411.34;5141281;28;20686;-62
2022/02/15 05:50:58;;;;;;;4.53;4.17;;;4.90;99.90;;;5.74;100.00;97408.59;5142212;28;20204;-62
2022/02/15 05:53:32;;;;;;;3.47;3.20;;;4.90;99.90;;;5.81;100.00;97415.84;5139195;28;20216;-62
2022/02/15 05:56:06;;;;;;;3.60;3.30;;;5.00;99.90;;;5.78;100.00;97418.16;5139480;28;20210;-62
2022/02/15 05:58:40;;;;;;;4.20;3.90;;;4.90;99.90;;;5.76;100.00;97420.59;5138012;28;20270;-62
2022/02/15 06:01:13;;;;;;;4.10;3.83;;;4.90;99.90;;;5.77;100.00;97417.28;5137590;28;20199;-62
2022/02/15 06:06:38;;;;;;;4.53;4.10;;;4.90;99.90;;;5.81;100.00;97420.94;5136626;28;20235;-62
2022/02/15 06:09:11;;;;;;;4.43;4.13;;;4.90;99.90;;;5.81;100.00;97424.34;5141256;28;20192;-62
2022/02/15 06:11:44;;;;;;;4.20;3.97;;;4.90;99.90;;;5.80;100.00;97422.56;5142345;28;20200;-62
2022/02/15 06:14:18;;;;;;;4.33;4.03;;;4.90;99.90;;;5.79;100.00;97425.88;5142411;28;20206;-62
2022/02/15 06:16:51;;;;;;;4.10;3.80;;;4.90;99.90;;;5.86;100.00;97422.97;5142229;28;20202;-62
2022/02/15 06:19:26;;;;;;;5.77;5.27;;;5.00;99.90;;;5.75;100.00;97439.13;5143716;28;20226;-62
2022/02/15 06:21:59;;;;;;;6.53;6.00;;;5.00;99.90;;;5.71;100.00;97444.75;5143223;28;20286;-61
2022/02/15 06:24:32;;;;;;;6.70;6.07;;;4.80;99.90;;;5.70;100.00;97435.41;5146542;28;20199;-61
2022/02/15 06:27:07;;;;;;;7.50;6.80;;;4.90;99.90;;;5.74;100.00;97442.44;5151783;28;20196;-62
2022/02/15 06:29:41;;;;;;;7.03;6.43;;;4.90;99.90;;;5.68;100.00;97442.00;5143323;28;20531;-61
2022/02/15 06:32:14;;;;;;;6.73;6.23;;;4.90;99.90;;;5.71;100.00;97442.22;5141836;28;20278;-62
2022/02/15 06:34:47;;;;;;;6.90;6.30;;;4.90;99.90;;;5.73;100.00;97453.34;5144336;28;20196;-61
2022/02/15 06:37:21;;;;;;;6.83;6.33;;;4.90;99.90;;;5.74;100.00;97451.69;5146005;28;20235;-62
2022/02/15 06:39:54;;;;;;;7.70;7.10;;;4.90;99.90;;;5.82;100.00;97459.06;5145298;28;20715;-61
2022/02/15 06:42:30;;;;;;;6.57;5.97;;;4.90;99.90;;;5.82;100.00;97456.50;5141243;28;20572;-62
2022/02/15 06:45:05;;;;;;;6.83;6.13;;;5.00;99.90;;;5.84;100.00;97462.59;5143277;28;20210;-62
2022/02/15 06:47:39;;;;;;;7.13;6.47;;;5.00;99.90;;;5.80;100.00;97463.13;5146045;28;20203;-62
2022/02/15 06:50:12;;;;;;;6.87;6.37;;;5.00;99.90;;;5.85;100.00;97456.72;5143874;28;20200;-63
2022/02/15 06:52:45;;;;;;;6.77;6.17;;;5.00;99.90;;;5.93;100.00;97464.00;5144763;28;20224;-62
2022/02/15 06:55:39;;;;;;;6.20;5.77;;;5.10;99.90;;;5.95;100.00;97465.91;5139538;28;20197;-63
2022/02/15 06:58:12;;;;;;;6.40;5.90;;;5.10;99.90;;;5.99;100.00;97465.31;5141969;28;20204;-62
2022/02/15 07:00:46;;;;;;;9.07;6.90;;;5.10;99.90;;;5.98;100.00;97482.94;5143076;28;20228;-63
2022/02/15 07:03:19;;;;;;;6.47;5.90;;;5.10;99.90;;;6.01;100.00;97475.53;5138327;28;20231;-63
2022/02/15 07:05:52;;;;;;;6.30;5.90;;;5.10;99.90;;;6.00;100.00;97484.81;5143099;28;20211;-63
2022/02/15 07:08:25;;;;;;;6.13;5.63;;;5.10;99.90;;;6.04;100.00;97488.47;5136576;28;20200;-63
2022/02/15 07:10:58;;;;;;;5.90;5.33;;;5.10;99.90;;;6.05;100.00;97493.63;5141598;28;20200;-62
2022/02/15 07:13:31;;;;;;;6.67;6.13;;;5.10;99.90;;;6.06;100.00;97502.13;5145087;28;20234;-62
2022/02/15 07:16:06;;;;;;;6.40;5.80;;;5.10;99.90;;;6.02;100.00;97510.31;5143017;28;20296;-62
2022/02/15 07:18:42;;;;;;;5.90;5.50;;;5.10;99.90;;;6.05;100.00;97505.44;5145100;28;20207;-63
2022/02/15 07:21:17;;;;;;;6.50;5.90;;;5.20;99.90;;;6.07;100.00;97520.00;5141595;28;20208;-63
2022/02/15 07:23:50;;;;;;;6.30;5.80;;;5.20;99.90;;;6.11;100.00;97513.47;5135940;28;20215;-63
2022/02/15 07:26:23;;;;;;;6.27;5.77;;;5.20;99.90;;;6.15;100.00;97517.97;5138693;28;20207;-62
2022/02/15 07:28:56;;;;;;;6.23;5.73;;;5.30;99.90;;;6.12;100.00;97516.88;5144217;28;20207;-63
2022/02/15 07:31:31;;;;;;;6.37;5.90;;;5.20;99.90;;;6.12;100.00;97516.88;5137967;28;20210;-63
2022/02/15 07:34:04;;;;;;;6.37;5.83;;;5.20;99.90;;;6.16;100.00;97517.19;5144324;28;20196;-62
2022/02/15 07:36:37;;;;;;;6.80;6.30;;;5.20;99.90;;;6.15;100.00;97514.53;5145116;28;20666;-62
2022/02/15 07:39:10;;;;;;;7.63;6.93;;;5.30;99.90;;;6.19;100.00;97530.09;5135711;28;20221;-63
2022/02/15 07:41:44;;;;;;;9.53;8.57;;;5.30;99.90;;;6.26;100.00;97532.25;5146241;28;20213;-63
2022/02/15 07:44:17;;;;;;;9.57;8.60;;;5.30;99.90;;;6.30;100.00;97543.53;5144388;28;20227;-62
2022/02/15 07:46:52;;;;;;;8.30;7.50;;;5.30;99.90;;;6.30;100.00;97544.41;5144456;28;20219;-63
2022/02/15 07:49:25;;;;;;;10.00;9.13;;;5.40;99.90;;;6.33;100.00;97543.72;5143816;28;20294;-63
2022/02/15 07:51:58;;;;;;;9.17;8.27;;;5.40;99.90;;;6.35;100.00;97556.50;5146803;28;20228;-63
2022/02/15 07:54:31;;;;;;;9.70;8.80;;;5.50;99.90;;;6.40;100.00;97550.09;5141483;28;20204;-62
2022/02/15 07:57:06;;;;;;;10.60;9.70;;;5.50;99.90;;;6.49;100.00;97555.78;5143347;28;20232;-63
2022/02/15 07:59:40;;;;;;;11.47;10.37;;;5.50;99.90;;;6.53;100.00;97557.78;5148551;28;20198;-62
2022/02/15 08:02:14;;;;;;;10.67;9.67;;;5.50;99.90;;;6.54;100.00;97557.00;5140212;28;20719;-62
2022/02/15 08:04:47;;;;;;;10.10;9.20;;;5.60;99.90;;;6.55;100.00;97563.81;5140927;28;20208;-63
2022/02/15 08:07:20;;;;;;;11.13;10.00;;;5.60;99.90;;;6.58;100.00;97569.13;5143204;28;20576;-62
2022/02/15 08:09:53;;;;;;;10.23;9.20;;;5.70;99.90;;;6.61;100.00;97566.78;5141566;28;20286;-62
2022/02/15 08:12:27;;;;;;;8.63;7.83;;;5.70;99.90;;;6.66;100.00;97577.25;5141876;28;20216;-63
2022/02/15 08:15:00;;;;;;;8.17;7.37;;;5.70;99.90;;;6.70;100.00;97577.56;5143765;28;20228;-63
2022/02/15 08:17:34;;;;;;;7.00;6.27;;;5.70;99.90;;;6.73;100.00;97582.84;5138154;28;20591;-63
2022/02/15 08:20:08;;;;;;;6.20;5.63;;;5.70;99.90;;;6.75;100.00;97581.31;5139066;28;20227;-63
2022/02/15 08:22:41;;;;;;;5.47;5.07;;;5.70;99.90;;;6.74;100.00;97584.59;5141417;28;20711;-62
2022/02/15 08:25:15;;;;;;;6.60;5.83;;;5.70;99.90;;;6.77;100.00;97582.25;5140739;28;20715;-63
2022/02/15 08:27:48;;;;;;;6.63;6.03;;;5.80;99.90;;;6.77;100.00;97584.81;5142114;28;20214;-62
2022/02/15 08:30:22;;;;;;;9.53;5.80;;;5.80;99.90;;;6.83;100.00;97589.41;5140829;28;20572;-63
2022/02/15 08:32:57;;;;;;;7.00;5.80;;;5.80;99.90;;;6.85;100.00;97592.06;5142978;28;20246;-63
2022/02/15 08:35:30;;;;;;;6.40;5.73;;;5.80;99.90;;;6.78;100.00;97590.75;5141645;28;20218;-62
2022/02/15 08:38:03;;;;;;;5.90;5.40;;;5.80;99.90;;;6.82;100.00;97590.19;5145629;28;20204;-63
2022/02/15 08:40:37;;;;;;;5.40;4.97;;;5.90;99.90;;;6.86;100.00;97584.53;5137746;28;20220;-62
2022/02/15 08:43:10;;;;;;;5.80;5.30;;;5.90;99.90;;;6.94;100.00;97582.50;5141544;28;20223;-62
2022/02/15 08:45:43;;;;;;;5.33;4.70;;;6.00;99.90;;;7.06;100.00;97582.44;5141569;28;20206;-62
2022/02/15 08:48:18;;;;;;;4.70;4.30;;;6.00;99.90;;;7.12;100.00;97583.72;5141887;28;20609;-63
2022/02/15 08:50:51;;;;;;;5.60;4.83;;;6.10;99.90;;;7.21;100.00;97583.44;5143796;28;20200;-62
2022/02/15 08:53:24;;;;;;;5.13;4.70;;;6.10;99.90;;;7.32;100.00;97591.75;5143461;28;20227;-63
2022/02/15 08:55:57;;;;;;;5.20;4.70;;;6.20;99.90;;;7.40;100.00;97590.59;5138848;28;20664;-63
2022/02/15 08:58:34;;;;;;;6.50;5.00;;;6.30;99.90;;;7.43;100.00;97585.72;5143332;28;20210;-62
2022/02/15 09:01:12;;;;;;;4.80;4.40;;;6.40;99.90;;;7.49;100.00;97590.31;5141008;28;20227;-63
2022/02/15 09:03:47;;;;;;;7.10;4.63;;;6.50;99.90;;;7.61;100.00;97601.25;5138726;28;20713;-63
2022/02/15 09:06:20;;;;;;;5.73;5.13;;;6.50;99.90;;;7.78;100.00;97599.81;5143179;28;20207;-62
2022/02/15 09:08:53;;;;;;;4.80;4.30;;;6.60;99.90;;;7.89;98.55;97609.88;5141397;28;20211;-62
2022/02/15 09:11:26;;;;;;;4.70;4.30;;;6.70;99.90;;;7.84;98.23;97611.28;5137791;28;20218;-63
2022/02/15 09:13:59;;;;;;;4.37;4.00;;;6.80;99.90;;;8.03;97.05;97618.38;5140001;28;20219;-63
2022/02/15 09:16:33;;;;;;;4.73;4.37;;;6.90;99.90;;;8.10;96.52;97615.44;5141217;28;20670;-62
2022/02/15 09:19:07;;;;;;;5.03;4.63;;;7.00;99.90;;;8.10;94.87;97633.25;5143402;28;20196;-63
2022/02/15 09:21:40;;;;;;;4.90;4.20;;;7.00;99.90;;;8.17;93.95;97618.38;5142544;28;20587;-63
2022/02/15 09:24:13;;;;;;;4.40;4.00;;;7.00;99.90;;;8.08;93.36;97627.19;5141965;28;20232;-63
2022/02/15 09:26:47;;;;;;;4.40;4.10;;;7.00;99.90;;;8.06;92.72;97623.66;5143323;28;20204;-63
2022/02/15 09:29:20;;;;;;;4.10;3.80;;;7.00;99.90;;;8.07;92.96;97630.53;5141030;28;20665;-63
2022/02/15 09:31:53;;;;;;;4.63;4.23;;;7.00;99.90;;;8.08;93.42;97632.28;5140570;28;20223;-63
2022/02/15 09:34:28;;;;;;;4.27;3.87;;;7.00;99.90;;;8.21;92.16;97625.41;5139916;28;20214;-63
2022/02/15 09:37:01;;;;;;;4.20;3.90;;;7.00;99.90;;;8.26;91.55;97632.53;5138712;28;20196;-63
2022/02/15 09:39:34;;;;;;;4.50;4.10;;;7.10;99.90;;;8.29;91.61;97631.84;5142237;28;20222;-63
2022/02/15 09:42:07;;;;;;;4.67;4.37;;;7.20;99.90;;;8.27;92.06;97623.22;5141896;28;20236;-63
2022/02/15 09:44:40;;;;;;;5.23;3.67;;;7.20;99.90;;;8.26;92.25;97631.66;5139750;28;20210;-63
2022/02/15 09:47:15;;;;;;;4.30;3.87;;;7.20;99.90;;;8.38;91.48;97631.53;5137106;28;20286;-62
2022/02/15 09:49:50;;;;;;;3.33;3.13;;;7.30;99.90;;;8.37;90.37;97639.97;5140097;28;20670;-63
2022/02/15 09:52:25;;;;;;;4.07;3.77;;;7.30;99.90;;;8.32;90.03;97635.47;5137946;28;20302;-62
2022/02/15 09:54:58;;;;;;;4.03;3.37;;;7.30;99.90;;;8.20;90.56;97637.25;5140553;28;20290;-62
2022/02/15 09:57:31;;;;;;;3.60;3.40;;;7.20;99.90;;;8.20;89.45;97641.47;5145475;28;20204;-63
2022/02/15 10:00:25;;;;;;;3.53;3.23;;;7.10;99.90;;;8.17;88.03;97641.28;5145484;28;20200;-62
2022/02/15 10:02:59;;;;;;;3.40;3.10;;;7.00;99.90;;;8.15;87.83;97645.38;5142709;28;20226;-62
2022/02/15 10:05:34;;;;;;;3.60;3.30;;;7.00;99.90;;;8.12;87.30;97657.13;5141436;28;20207;-62
2022/02/15 10:08:07;;;;;;;4.17;3.87;;;6.90;99.90;;;8.11;87.58;97657.06;5141744;28;20207;-62
2022/02/15 10:10:40;;;;;;;3.53;3.30;;;6.90;99.90;;;8.06;87.63;97664.38;5144502;28;20210;-63
2022/02/15 10:13:14;;;;;;;4.07;3.77;;;6.90;99.90;;;7.90;88.22;97661.66;5140607;28;20223;-63
2022/02/15 10:15:52;;;;;;;4.07;3.77;;;6.90;99.90;;;7.83;88.69;97662.03;5146156;28;20707;-62
2022/02/15 10:18:27;;;;;;;4.33;4.03;;;6.80;99.90;;;7.77;89.46;97656.56;5138337;28;20217;-63
2022/02/15 10:21:01;;;;;;;4.73;4.33;;;6.70;99.90;;;7.58;90.76;97662.09;5144630;28;20206;-62
2022/02/15 10:23:35;;;;;;;4.90;4.50;;;6.70;99.90;;;7.56;92.11;97666.25;5139871;28;20601;-62
2022/02/15 10:26:09;;;;;;;4.60;4.20;;;6.60;99.90;;;7.56;93.00;97669.66;5142711;28;20207;-62
2022/02/15 10:28:42;;;;;;;4.63;4.23;;;6.60;99.90;;;7.58;94.14;97680.81;5146186;28;20330;-63
2022/02/15 10:31:16;;;;;;;4.47;4.17;;;6.60;99.90;;;7.60;93.79;97666.53;5143049;28;20279;-63
2022/02/15 10:33:50;;;;;;;5.10;4.60;;;6.70;99.90;;;7.80;92.99;97685.63;5139249;28;20318;-64
2022/02/15 10:36:24;;;;;;;5.50;5.00;;;6.80;99.90;;;8.03;91.75;97679.47;5144422;28;20214;-62
2022/02/15 10:38:57;;;;;;;5.57;4.80;;;6.90;99.90;;;8.09;91.77;97684.94;5147484;28;20199;-63
2022/02/15 10:41:34;;;;;;;5.73;4.73;;;7.00;99.90;;;8.18;91.77;97686.31;5140192;28;20238;-62
2022/02/15 10:44:08;;;;;;;4.30;3.90;;;7.20;99.90;;;8.35;90.64;97689.16;5141424;28;20206;-62
2022/02/15 10:46:41;;;;;;;4.97;4.63;;;7.30;99.90;;;8.49;89.42;97679.84;5143615;28;20282;-62
2022/02/15 10:49:15;;;;;;;4.73;4.30;;;7.40;99.90;;;8.61;87.62;97683.94;5142957;28;20200;-62
2022/02/15 10:51:50;;;;;;;4.30;4.00;;;7.40;99.90;;;8.56;85.97;97684.53;5141755;28;20199;-62
2022/02/15 10:54:23;;;;;;;4.33;4.03;;;7.50;99.90;;;8.51;87.61;97682.50;5147986;28;20203;-62
2022/02/15 10:56:56;;;;;;;4.30;4.00;;;7.40;99.90;;;8.66;86.53;97678.34;5139482;28;20218;-62
2022/02/15 10:59:34;;;;;;;3.67;3.47;;;7.50;99.90;;;8.67;87.04;97676.66;5143658;28;20201;-63
2022/02/15 11:02:07;;;;;;;4.33;4.03;;;7.50;99.90;;;8.74;87.05;97679.69;5145230;28;20668;-62
2022/02/15 11:04:43;;;;;;;3.60;3.40;;;7.70;99.90;;;8.75;85.34;97685.66;5141750;28;20290;-62
2022/02/15 11:07:20;;;;;;;3.47;3.23;;;7.70;99.90;;;8.80;83.53;97674.09;5140422;28;20210;-63